createdAt,value
2023-04-06T00:00:16.526Z,29.50
2023-04-06T00:01:16.562Z,29.48
2023-04-06T00:02:16.697Z,29.47
2023-04-06T00:03:16.735Z,29.49
2023-04-06T00:04:16.744Z,29.49
2023-04-06T00:05:16.796Z,29.49
2023-04-06T00:06:17.381Z,29.49
2023-04-06T00:07:16.917Z,29.47
2023-04-06T00:08:16.961Z,29.49
2023-04-06T00:09:17.041Z,29.48
2023-04-06T00:10:17.054Z,29.48
2023-04-06T00:11:17.074Z,29.48
2023-04-06T00:12:17.122Z,29.48
2023-04-06T00:13:17.163Z,29.49
2023-04-06T00:14:17.209Z,29.52
2023-04-06T00:15:17.296Z,29.47
2023-04-06T00:16:17.372Z,29.47
2023-04-06T00:17:17.464Z,29.47
2023-04-06T00:18:17.467Z,29.47
2023-04-06T00:19:17.475Z,29.48
2023-04-06T00:20:17.515Z,29.49
2023-04-06T00:21:17.528Z,29.49
2023-04-06T00:22:17.565Z,29.47
2023-04-06T00:23:17.631Z,29.46
2023-04-06T00:24:17.682Z,29.48
2023-04-06T00:25:17.706Z,29.51
2023-04-06T00:26:17.746Z,29.46
2023-04-06T00:27:17.830Z,29.47
2023-04-06T00:28:17.830Z,29.47
2023-04-06T00:29:17.807Z,29.49
2023-04-06T00:30:17.837Z,29.48
2023-04-06T00:31:17.816Z,29.47
2023-04-06T00:32:17.908Z,29.49
2023-04-06T00:33:17.821Z,29.50
2023-04-06T00:34:17.853Z,29.48
2023-04-06T00:35:17.874Z,29.47
2023-04-06T00:36:17.941Z,29.51
2023-04-06T00:37:17.907Z,29.49
2023-04-06T00:38:17.923Z,29.49
2023-04-06T00:39:19.747Z,29.49
2023-04-06T00:40:17.915Z,29.48
2023-04-06T00:41:17.925Z,29.48
2023-04-06T00:42:17.922Z,29.47
2023-04-06T00:43:17.931Z,29.49
2023-04-06T00:44:17.919Z,29.50
2023-04-06T00:45:17.946Z,29.49
2023-04-06T00:46:17.967Z,29.50
2023-04-06T00:47:17.878Z,29.47
2023-04-06T00:48:17.903Z,29.48
2023-04-06T00:49:17.914Z,29.49
2023-04-06T00:50:17.879Z,29.50
2023-04-06T00:51:17.898Z,29.48
2023-04-06T00:52:17.918Z,29.50
2023-04-06T00:53:17.913Z,29.48
2023-04-06T00:54:17.889Z,29.49
2023-04-06T00:55:17.908Z,29.50
2023-04-06T00:56:17.893Z,29.49
2023-04-06T00:57:17.954Z,29.48
2023-04-06T00:58:17.931Z,29.48
2023-04-06T00:59:17.957Z,29.48
2023-04-06T01:00:17.921Z,29.47
2023-04-06T01:01:17.949Z,29.48
2023-04-06T01:02:17.940Z,29.51
2023-04-06T01:03:17.936Z,29.48
2023-04-06T01:04:17.950Z,29.49
2023-04-06T01:05:17.942Z,29.50
2023-04-06T01:06:17.924Z,29.50
2023-04-06T01:07:17.957Z,29.47
2023-04-06T01:08:17.949Z,29.48
2023-04-06T01:09:17.967Z,29.49
2023-04-06T01:10:17.978Z,29.49
2023-04-06T01:11:17.949Z,29.49
2023-04-06T01:12:17.956Z,29.50
2023-04-06T01:13:17.950Z,29.49
2023-04-06T01:14:17.947Z,29.50
2023-04-06T01:15:17.943Z,29.49
2023-04-06T01:16:17.967Z,29.50
2023-04-06T01:17:17.978Z,29.49
2023-04-06T01:18:17.930Z,29.50
2023-04-06T01:19:17.965Z,29.47
2023-04-06T01:20:17.926Z,29.46
2023-04-06T01:21:17.970Z,29.47
2023-04-06T01:22:17.991Z,29.47
2023-04-06T01:23:17.949Z,29.47
2023-04-06T01:24:17.958Z,29.49
2023-04-06T01:25:17.958Z,29.48
2023-04-06T01:26:17.945Z,29.49
2023-04-06T01:27:17.957Z,29.46
2023-04-06T01:28:17.939Z,29.48
2023-04-06T01:29:17.941Z,29.47
2023-04-06T01:30:17.937Z,29.48
2023-04-06T01:31:17.956Z,29.49
2023-04-06T01:32:17.984Z,29.47
2023-04-06T01:33:17.951Z,29.47
2023-04-06T01:34:17.978Z,29.48
2023-04-06T01:35:18.003Z,29.48
2023-04-06T01:36:17.955Z,29.49
2023-04-06T01:37:17.958Z,29.47
2023-04-06T01:38:17.951Z,29.48
2023-04-06T01:39:17.983Z,29.48
2023-04-06T01:40:17.932Z,29.48
2023-04-06T01:41:17.954Z,29.48
2023-04-06T01:42:17.994Z,29.47
2023-04-06T01:43:17.987Z,29.47
2023-04-06T01:44:17.947Z,29.49
2023-04-06T01:45:17.967Z,29.47
2023-04-06T01:46:18.000Z,29.47
2023-04-06T01:47:17.979Z,29.48
2023-04-06T01:48:17.984Z,29.47
2023-04-06T01:49:17.963Z,29.47
2023-04-06T01:50:17.954Z,29.50
2023-04-06T01:51:17.965Z,29.48
2023-04-06T01:52:17.994Z,29.47
2023-04-06T01:53:17.971Z,29.47
2023-04-06T01:54:18.008Z,29.46
2023-04-06T01:55:17.954Z,29.45
2023-04-06T01:56:17.993Z,29.48
2023-04-06T01:57:18.028Z,29.46
2023-04-06T01:58:17.994Z,29.46
2023-04-06T01:59:18.023Z,29.47
2023-04-06T02:00:17.994Z,29.45
2023-04-06T02:01:18.048Z,29.48
2023-04-06T02:02:18.018Z,29.45
2023-04-06T02:03:18.018Z,29.45
2023-04-06T02:04:17.962Z,29.46
2023-04-06T02:05:17.973Z,29.46
2023-04-06T02:06:17.996Z,29.46
2023-04-06T02:07:18.007Z,29.48
2023-04-06T02:08:17.990Z,29.48
2023-04-06T02:09:17.978Z,29.46
2023-04-06T02:10:18.004Z,29.45
2023-04-06T02:11:18.026Z,29.48
2023-04-06T02:12:18.031Z,29.46
2023-04-06T02:13:18.023Z,29.47
2023-04-06T02:14:18.044Z,29.47
2023-04-06T02:15:18.037Z,29.49
2023-04-06T02:16:18.047Z,29.48
2023-04-06T02:17:18.030Z,29.49
2023-04-06T02:18:18.020Z,29.45
2023-04-06T02:19:18.036Z,29.47
2023-04-06T02:20:18.025Z,29.45
2023-04-06T02:21:18.066Z,29.46
2023-04-06T02:22:18.057Z,29.46
2023-04-06T02:23:18.042Z,29.45
2023-04-06T02:24:18.046Z,29.46
2023-04-06T02:25:18.054Z,29.45
2023-04-06T02:26:18.047Z,29.46
2023-04-06T02:27:18.076Z,29.46
2023-04-06T02:28:18.052Z,29.48
2023-04-06T02:29:18.103Z,29.44
2023-04-06T02:30:18.107Z,29.44
2023-04-06T02:31:18.206Z,29.44
2023-04-06T02:32:18.129Z,29.46
2023-04-06T02:33:18.128Z,29.46
2023-04-06T02:34:18.140Z,29.44
2023-04-06T02:35:18.193Z,29.46
2023-04-06T02:36:18.167Z,29.44
2023-04-06T02:37:18.171Z,29.48
2023-04-06T02:38:18.207Z,29.45
2023-04-06T02:39:18.186Z,29.47
2023-04-06T02:40:18.245Z,29.47
2023-04-06T02:41:18.233Z,29.45
2023-04-06T02:42:18.235Z,29.45
2023-04-06T02:43:18.236Z,29.48
2023-04-06T02:44:18.221Z,29.47
2023-04-06T02:45:18.254Z,29.47
2023-04-06T02:46:18.321Z,29.46
2023-04-06T02:47:18.254Z,29.47
2023-04-06T02:48:18.303Z,29.45
2023-04-06T02:49:18.299Z,29.46
2023-04-06T02:50:18.298Z,29.45
2023-04-06T02:51:18.309Z,29.46
2023-04-06T02:52:18.326Z,29.45
2023-04-06T02:53:18.299Z,29.47
2023-04-06T02:54:18.340Z,29.47
2023-04-06T02:55:19.552Z,29.45
2023-04-06T02:56:18.344Z,29.47
2023-04-06T02:57:18.358Z,29.46
2023-04-06T02:58:18.380Z,29.47
2023-04-06T02:59:18.458Z,29.48
2023-04-06T03:00:18.350Z,29.46
2023-04-06T03:01:18.419Z,29.46
2023-04-06T03:02:18.438Z,29.45
2023-04-06T03:03:18.424Z,29.44
2023-04-06T03:04:18.382Z,29.43
2023-04-06T03:05:18.410Z,29.45
2023-04-06T03:06:18.410Z,29.45
2023-04-06T03:07:18.431Z,29.45
2023-04-06T03:08:18.450Z,29.45
2023-04-06T03:09:18.433Z,29.44
2023-04-06T03:10:18.442Z,29.43
2023-04-06T03:11:18.494Z,29.45
2023-04-06T03:12:18.536Z,29.46
2023-04-06T03:13:18.491Z,29.46
2023-04-06T03:14:18.487Z,29.43
2023-04-06T03:15:18.525Z,29.45
2023-04-06T03:16:18.619Z,29.44
2023-04-06T03:17:18.542Z,29.46
2023-04-06T03:18:18.527Z,29.45
2023-04-06T03:19:18.556Z,29.44
2023-04-06T03:20:18.541Z,29.45
2023-04-06T03:21:18.569Z,29.45
2023-04-06T03:22:18.590Z,29.46
2023-04-06T03:23:18.596Z,29.46
2023-04-06T03:24:18.562Z,29.46
2023-04-06T03:25:18.602Z,29.43
2023-04-06T03:26:18.636Z,29.44
2023-04-06T03:27:18.634Z,29.45
2023-04-06T03:28:18.662Z,29.44
2023-04-06T03:29:18.681Z,29.45
2023-04-06T03:30:18.705Z,29.45
2023-04-06T03:31:18.712Z,29.43
2023-04-06T03:32:18.704Z,29.43
2023-04-06T03:33:18.713Z,29.45
2023-04-06T03:34:18.731Z,29.43
2023-04-06T03:35:18.771Z,29.44
2023-04-06T03:36:18.763Z,29.46
2023-04-06T03:37:18.777Z,29.46
2023-04-06T03:38:18.797Z,29.47
2023-04-06T03:39:18.750Z,29.45
2023-04-06T03:40:18.807Z,29.44
2023-04-06T03:41:18.785Z,29.47
2023-04-06T03:42:18.809Z,29.45
2023-04-06T03:43:18.805Z,29.43
2023-04-06T03:44:18.826Z,29.44
2023-04-06T03:45:18.864Z,29.44
2023-04-06T03:46:18.964Z,29.42
2023-04-06T03:47:18.898Z,29.47
2023-04-06T03:48:18.869Z,29.43
2023-04-06T03:49:18.881Z,29.45
2023-04-06T03:50:18.907Z,29.43
2023-04-06T03:51:18.933Z,29.46
2023-04-06T03:52:18.932Z,29.43
2023-04-06T03:53:18.956Z,29.43
2023-04-06T03:54:18.985Z,29.44
2023-04-06T03:55:18.954Z,29.46
2023-04-06T03:56:19.040Z,29.45
2023-04-06T03:57:19.039Z,29.46
2023-04-06T03:58:19.031Z,29.45
2023-04-06T03:59:19.053Z,29.43
2023-04-06T04:00:19.050Z,29.46
2023-04-06T04:01:19.070Z,29.46
2023-04-06T04:02:19.158Z,29.44
2023-04-06T04:03:19.118Z,29.46
2023-04-06T04:04:19.114Z,29.46
2023-04-06T04:05:19.189Z,29.45
2023-04-06T04:06:19.149Z,29.44
2023-04-06T04:07:19.101Z,29.44
2023-04-06T04:08:19.101Z,29.45
2023-04-06T04:09:19.100Z,29.43
2023-04-06T04:10:19.113Z,29.44
2023-04-06T04:11:19.156Z,29.46
2023-04-06T04:12:19.206Z,29.45
2023-04-06T04:13:19.154Z,29.45
2023-04-06T04:14:19.183Z,29.46
2023-04-06T04:15:19.176Z,29.42
2023-04-06T04:16:19.205Z,29.45
2023-04-06T04:17:19.191Z,29.45
2023-04-06T04:18:19.160Z,29.47
2023-04-06T04:19:19.185Z,29.46
2023-04-06T04:20:19.171Z,29.44
2023-04-06T04:21:19.225Z,29.44
2023-04-06T04:22:19.210Z,29.44
2023-04-06T04:23:19.172Z,29.43
2023-04-06T04:24:19.178Z,29.45
2023-04-06T04:25:19.242Z,29.45
2023-04-06T04:26:19.195Z,29.45
2023-04-06T04:27:19.244Z,29.44
2023-04-06T04:28:19.246Z,29.48
2023-04-06T04:29:19.242Z,29.45
2023-04-06T04:30:19.266Z,29.44
2023-04-06T04:31:19.330Z,29.44
2023-04-06T04:32:19.389Z,29.43
2023-04-06T04:33:19.282Z,29.43
2023-04-06T04:34:19.340Z,29.44
2023-04-06T04:35:19.343Z,29.43
2023-04-06T04:36:19.330Z,29.42
2023-04-06T04:37:19.328Z,29.44
2023-04-06T04:38:19.359Z,29.44
2023-04-06T04:39:19.327Z,29.43
2023-04-06T04:40:19.351Z,29.44
2023-04-06T04:41:19.346Z,29.42
2023-04-06T04:42:19.407Z,29.42
2023-04-06T04:43:19.396Z,29.42
2023-04-06T04:44:19.395Z,29.44
2023-04-06T04:45:19.397Z,29.43
2023-04-06T04:46:19.505Z,29.45
2023-04-06T04:47:19.481Z,29.44
2023-04-06T04:48:19.427Z,29.44
2023-04-06T04:49:19.443Z,29.43
2023-04-06T04:50:19.458Z,29.45
2023-04-06T04:51:19.485Z,29.44
2023-04-06T04:52:19.528Z,29.42
2023-04-06T04:53:19.539Z,29.44
2023-04-06T04:54:19.508Z,29.44
2023-04-06T04:55:19.517Z,29.45
2023-04-06T04:56:19.508Z,29.44
2023-04-06T04:57:19.562Z,29.45
2023-04-06T04:58:19.544Z,29.45
2023-04-06T04:59:19.629Z,29.45
2023-04-06T05:00:19.572Z,29.46
2023-04-06T05:01:19.679Z,29.45
2023-04-06T05:02:19.753Z,29.47
2023-04-06T05:03:19.753Z,29.44
2023-04-06T05:04:19.593Z,29.46
2023-04-06T05:05:19.621Z,29.46
2023-04-06T05:06:19.639Z,29.45
2023-04-06T05:07:19.684Z,29.45
2023-04-06T05:08:19.731Z,29.46
2023-04-06T05:09:19.744Z,29.44
2023-04-06T05:10:19.749Z,29.45
2023-04-06T05:11:19.822Z,29.45
2023-04-06T05:12:19.867Z,29.45
2023-04-06T05:13:19.865Z,29.44
2023-04-06T05:14:19.881Z,29.46
2023-04-06T05:15:19.936Z,29.44
2023-04-06T05:16:19.998Z,29.46
2023-04-06T05:17:20.001Z,29.44
2023-04-06T05:18:19.990Z,29.46
2023-04-06T05:19:20.031Z,29.43
2023-04-06T05:20:20.096Z,29.41
2023-04-06T05:21:20.139Z,29.44
2023-04-06T05:22:20.159Z,29.46
2023-04-06T05:23:20.194Z,29.43
2023-04-06T05:24:20.237Z,29.42
2023-04-06T05:25:20.212Z,29.42
2023-04-06T05:26:20.283Z,29.44
2023-04-06T05:27:20.295Z,29.42
2023-04-06T05:28:20.295Z,29.43
2023-04-06T05:29:20.324Z,29.42
2023-04-06T05:30:20.400Z,29.43
2023-04-06T05:31:20.473Z,29.41
2023-04-06T05:32:20.477Z,29.42
2023-04-06T05:33:20.499Z,29.40
2023-04-06T05:34:20.522Z,29.41
2023-04-06T05:35:20.533Z,29.41
2023-04-06T05:36:20.551Z,29.40
2023-04-06T05:37:20.624Z,29.38
2023-04-06T05:38:20.621Z,29.39
2023-04-06T05:39:20.660Z,29.39
2023-04-06T05:40:20.690Z,29.38
2023-04-06T05:41:20.738Z,29.38
2023-04-06T05:42:20.791Z,29.37
2023-04-06T05:43:23.025Z,29.37
2023-04-06T05:44:20.833Z,29.38
2023-04-06T05:45:20.868Z,29.37
2023-04-06T05:46:20.942Z,29.40
2023-04-06T05:47:20.967Z,29.38
2023-04-06T05:48:20.938Z,29.37
2023-04-06T05:49:20.988Z,29.38
2023-04-06T05:50:21.017Z,29.39
2023-04-06T05:51:21.052Z,29.36
2023-04-06T05:52:21.067Z,29.38
2023-04-06T05:53:21.092Z,29.36
2023-04-06T05:54:21.107Z,29.37
2023-04-06T05:55:21.121Z,29.36
2023-04-06T05:56:21.166Z,29.34
2023-04-06T05:57:21.287Z,29.35
2023-04-06T05:58:21.230Z,29.35
2023-04-06T05:59:21.334Z,29.35
2023-04-06T06:00:21.302Z,29.34
2023-04-06T06:01:21.295Z,29.36
2023-04-06T06:02:21.395Z,29.36
2023-04-06T06:03:21.471Z,29.35
2023-04-06T06:04:21.418Z,29.36
2023-04-06T06:05:21.524Z,29.37
2023-04-06T06:06:21.456Z,29.36
2023-04-06T06:07:21.517Z,29.35
2023-04-06T06:08:21.529Z,29.35
2023-04-06T06:09:21.539Z,29.35
2023-04-06T06:10:21.580Z,29.31
2023-04-06T06:11:21.598Z,29.32
2023-04-06T06:12:21.646Z,29.31
2023-04-06T06:13:21.714Z,29.32
2023-04-06T06:14:21.709Z,29.30
2023-04-06T06:15:21.713Z,29.32
2023-04-06T06:16:21.785Z,29.31
2023-04-06T06:17:21.793Z,29.29
2023-04-06T06:18:21.796Z,29.31
2023-04-06T06:19:21.806Z,29.30
2023-04-06T06:20:21.833Z,29.29
2023-04-06T06:21:21.884Z,29.29
2023-04-06T06:22:21.937Z,29.27
2023-04-06T06:23:21.947Z,29.27
2023-04-06T06:24:21.929Z,29.28
2023-04-06T06:25:21.994Z,29.26
2023-04-06T06:26:21.992Z,29.27
2023-04-06T06:27:22.040Z,29.24
2023-04-06T06:28:22.215Z,29.25
2023-04-06T06:29:22.056Z,29.24
2023-04-06T06:30:23.496Z,29.24
2023-04-06T06:31:22.125Z,29.26
2023-04-06T06:32:22.221Z,29.21
2023-04-06T06:33:22.161Z,29.23
2023-04-06T06:34:22.200Z,29.23
2023-04-06T06:35:22.234Z,29.22
2023-04-06T06:36:22.264Z,29.22
2023-04-06T06:37:22.303Z,29.23
2023-04-06T06:38:23.981Z,29.20
2023-04-06T06:39:22.319Z,29.23
2023-04-06T06:40:22.364Z,29.22
2023-04-06T06:41:22.330Z,29.23
2023-04-06T06:42:22.407Z,29.20
2023-04-06T06:43:22.406Z,29.24
2023-04-06T06:44:22.428Z,29.21
2023-04-06T06:45:22.561Z,29.21
2023-04-06T06:46:22.923Z,29.23
2023-04-06T06:47:22.537Z,29.22
2023-04-06T06:48:22.520Z,29.17
2023-04-06T06:49:22.510Z,29.19
2023-04-06T06:50:22.538Z,29.19
2023-04-06T06:51:22.612Z,29.21
2023-04-06T06:52:22.643Z,29.19
2023-04-06T06:53:22.644Z,29.18
2023-04-06T06:54:22.653Z,29.18
2023-04-06T06:55:22.685Z,29.18
2023-04-06T06:56:22.721Z,29.17
2023-04-06T06:57:22.737Z,29.16
2023-04-06T06:58:22.744Z,29.16
2023-04-06T06:59:22.797Z,29.16
2023-04-06T07:00:23.067Z,29.20
2023-04-06T07:01:22.910Z,29.18
2023-04-06T07:02:22.855Z,29.17
2023-04-06T07:03:22.883Z,29.16
2023-04-06T07:04:22.930Z,29.16
2023-04-06T07:05:27.734Z,29.16
2023-04-06T07:06:23.897Z,29.21
2023-04-06T07:07:22.948Z,29.16
2023-04-06T07:08:22.928Z,29.15
2023-04-06T07:09:22.989Z,29.17
2023-04-06T07:10:22.933Z,29.16
2023-04-06T07:11:22.968Z,29.14
2023-04-06T07:12:22.989Z,29.14
2023-04-06T07:13:22.953Z,29.15
2023-04-06T07:14:22.946Z,29.13
2023-04-06T07:15:22.939Z,29.15
2023-04-06T07:16:22.949Z,29.15
2023-04-06T07:17:22.970Z,29.15
2023-04-06T07:18:22.950Z,29.12
2023-04-06T07:19:22.971Z,29.13
2023-04-06T07:20:22.987Z,29.13
2023-04-06T07:21:22.989Z,29.12
2023-04-06T07:22:22.967Z,29.13
2023-04-06T07:23:22.995Z,29.12
2023-04-06T07:24:22.952Z,29.13
2023-04-06T07:25:25.613Z,29.12
2023-04-06T07:26:22.987Z,29.11
2023-04-06T07:27:22.980Z,29.09
2023-04-06T07:28:22.982Z,29.10
2023-04-06T07:29:22.996Z,29.06
2023-04-06T07:30:22.959Z,29.09
2023-04-06T07:31:22.967Z,29.06
2023-04-06T07:32:23.029Z,29.06
2023-04-06T07:33:22.978Z,29.06
2023-04-06T07:34:22.970Z,29.05
2023-04-06T07:35:23.018Z,29.04
2023-04-06T07:36:22.958Z,29.05
2023-04-06T07:37:22.975Z,29.03
2023-04-06T07:38:23.003Z,29.02
2023-04-06T07:39:22.980Z,29.02
2023-04-06T07:40:22.997Z,29.03
2023-04-06T07:41:22.998Z,29.02
2023-04-06T07:42:22.977Z,29.00
2023-04-06T07:43:22.980Z,28.98
2023-04-06T07:44:23.029Z,29.01
2023-04-06T07:45:22.993Z,28.99
2023-04-06T07:46:23.061Z,28.99
2023-04-06T07:47:23.006Z,28.96
2023-04-06T07:48:23.011Z,28.96
2023-04-06T07:49:23.074Z,28.96
2023-04-06T07:50:23.007Z,28.95
2023-04-06T07:51:23.002Z,28.95
2023-04-06T07:52:22.975Z,28.94
2023-04-06T07:53:22.995Z,28.95
2023-04-06T07:54:23.000Z,28.95
2023-04-06T07:55:23.009Z,28.96
2023-04-06T07:56:22.986Z,28.95
2023-04-06T07:57:23.013Z,28.91
2023-04-06T07:58:22.985Z,28.91
2023-04-06T07:59:23.022Z,28.92
2023-04-06T08:00:23.105Z,28.90
2023-04-06T08:01:22.989Z,28.91
2023-04-06T08:02:23.070Z,28.90
2023-04-06T08:03:23.193Z,28.91
2023-04-06T08:04:22.973Z,28.91
2023-04-06T08:05:23.001Z,28.90
2023-04-06T08:06:22.995Z,28.88
2023-04-06T08:07:23.008Z,28.88
2023-04-06T08:08:23.002Z,28.88
2023-04-06T08:09:22.990Z,28.85
2023-04-06T08:10:23.060Z,28.83
2023-04-06T08:11:22.978Z,28.83
2023-04-06T08:12:23.010Z,28.83
2023-04-06T08:13:22.992Z,28.83
2023-04-06T08:14:23.005Z,28.82
2023-04-06T08:15:23.001Z,28.79
2023-04-06T08:16:23.035Z,28.83
2023-04-06T08:17:23.038Z,28.80
2023-04-06T08:18:22.990Z,28.79
2023-04-06T08:19:23.019Z,28.77
2023-04-06T08:20:23.004Z,28.80
2023-04-06T08:21:22.996Z,28.78
2023-04-06T08:22:23.002Z,28.78
2023-04-06T08:23:23.008Z,28.76
2023-04-06T08:24:22.996Z,28.77
2023-04-06T08:25:23.003Z,28.77
2023-04-06T08:26:23.033Z,28.75
2023-04-06T08:27:22.987Z,28.73
2023-04-06T08:28:23.033Z,28.75
2023-04-06T08:29:23.011Z,28.77
2023-04-06T08:30:23.006Z,28.74
2023-04-06T08:31:23.073Z,28.71
2023-04-06T08:32:23.065Z,28.72
2023-04-06T08:33:23.014Z,28.61
2023-04-06T08:34:23.017Z,28.56
2023-04-06T08:35:23.089Z,28.53
2023-04-06T08:36:23.022Z,28.43
2023-04-06T08:37:22.988Z,28.53
2023-04-06T08:38:23.041Z,28.50
2023-04-06T08:39:23.005Z,28.50
2023-04-06T08:40:22.992Z,28.47
2023-04-06T08:41:23.021Z,28.47
2023-04-06T08:42:23.054Z,28.47
2023-04-06T08:43:23.158Z,28.47
2023-04-06T08:44:23.187Z,28.45
2023-04-06T08:45:23.255Z,28.47
2023-04-06T08:46:23.340Z,28.44
2023-04-06T08:47:24.808Z,28.42
2023-04-06T08:48:23.447Z,28.40
2023-04-06T08:49:23.474Z,28.41
2023-04-06T08:50:23.533Z,28.46
2023-04-06T08:51:23.594Z,28.44
2023-04-06T08:52:23.685Z,28.43
2023-04-06T08:53:24.268Z,28.44
2023-04-06T08:54:23.772Z,28.49
2023-04-06T08:55:23.869Z,28.42
2023-04-06T08:56:23.933Z,28.43
2023-04-06T08:57:23.957Z,28.42
2023-04-06T08:58:35.229Z,28.46
2023-04-06T08:59:25.073Z,28.41
2023-04-06T09:00:23.980Z,28.41
2023-04-06T09:01:24.012Z,28.36
2023-04-06T09:02:24.018Z,28.38
2023-04-06T09:03:24.122Z,28.43
2023-04-06T09:04:24.033Z,28.49
2023-04-06T09:05:23.968Z,28.50
2023-04-06T09:06:23.994Z,28.47
2023-04-06T09:07:23.934Z,28.48
2023-04-06T09:08:24.024Z,28.45
2023-04-06T09:09:24.901Z,28.40
2023-04-06T09:10:24.075Z,28.38
2023-04-06T09:11:24.116Z,28.40
2023-04-06T09:12:24.142Z,28.32
2023-04-06T09:13:24.217Z,28.30
2023-04-06T09:14:24.263Z,28.24
2023-04-06T09:15:24.830Z,28.27
2023-04-06T09:16:24.376Z,28.32
2023-04-06T09:17:24.419Z,28.32
2023-04-06T09:18:24.432Z,28.31
2023-04-06T09:19:24.472Z,28.34
2023-04-06T09:20:24.491Z,28.38
2023-04-06T09:21:25.915Z,28.38
2023-04-06T09:22:24.623Z,28.37
2023-04-06T09:23:24.713Z,28.37
2023-04-06T09:24:24.683Z,28.40
2023-04-06T09:25:24.749Z,28.37
2023-04-06T09:26:24.740Z,28.36
2023-04-06T09:27:24.800Z,28.37
2023-04-06T09:28:24.837Z,28.36
2023-04-06T09:29:24.861Z,28.36
2023-04-06T09:30:24.931Z,28.35
2023-04-06T09:31:24.985Z,28.33
2023-04-06T09:32:25.039Z,28.34
2023-04-06T09:33:25.054Z,28.32
2023-04-06T09:34:25.051Z,28.33
2023-04-06T09:35:25.131Z,28.33
2023-04-06T09:36:25.121Z,28.35
2023-04-06T09:37:25.159Z,28.38
2023-04-06T09:38:25.182Z,28.32
2023-04-06T09:39:25.237Z,28.35
2023-04-06T09:40:25.250Z,28.35
2023-04-06T09:41:25.309Z,28.32
2023-04-06T09:42:25.361Z,28.34
2023-04-06T09:43:25.349Z,28.33
2023-04-06T09:44:25.420Z,28.32
2023-04-06T09:45:25.452Z,28.30
2023-04-06T09:46:25.497Z,28.28
2023-04-06T09:47:27.851Z,28.29
2023-04-06T09:48:26.467Z,28.28
2023-04-06T09:49:25.654Z,28.27
2023-04-06T09:50:25.639Z,28.28
2023-04-06T09:51:25.661Z,28.27
2023-04-06T09:52:25.670Z,28.23
2023-04-06T09:53:25.692Z,28.21
2023-04-06T09:54:25.741Z,28.22
2023-04-06T09:55:25.810Z,28.20
2023-04-06T09:56:25.821Z,28.20
2023-04-06T09:57:25.861Z,28.23
2023-04-06T09:58:25.881Z,28.25
2023-04-06T09:59:25.906Z,28.22
2023-04-06T10:00:25.878Z,28.21
2023-04-06T10:01:26.004Z,28.21
2023-04-06T10:02:25.956Z,28.23
2023-04-06T10:03:25.975Z,28.21
2023-04-06T10:04:25.957Z,28.23
2023-04-06T10:05:25.972Z,28.23
2023-04-06T10:06:26.018Z,28.25
2023-04-06T10:07:26.031Z,28.24
2023-04-06T10:08:26.084Z,28.26
2023-04-06T10:09:26.065Z,28.26
2023-04-06T10:10:27.017Z,28.26
2023-04-06T10:11:26.134Z,28.24
2023-04-06T10:12:26.138Z,28.28
2023-04-06T10:13:26.171Z,28.26
2023-04-06T10:14:26.186Z,28.25
2023-04-06T10:15:26.255Z,28.27
2023-04-06T10:16:26.305Z,28.28
2023-04-06T10:17:26.259Z,28.28
2023-04-06T10:18:26.277Z,28.26
2023-04-06T10:19:26.321Z,28.29
2023-04-06T10:20:26.341Z,28.30
2023-04-06T10:21:26.372Z,28.26
2023-04-06T10:22:26.344Z,28.30
2023-04-06T10:23:26.418Z,28.28
2023-04-06T10:24:26.412Z,28.30
2023-04-06T10:25:26.410Z,28.27
2023-04-06T10:26:26.465Z,28.30
2023-04-06T10:27:26.806Z,28.30
2023-04-06T10:28:26.548Z,28.31
2023-04-06T10:29:26.578Z,28.32
2023-04-06T10:30:26.559Z,28.33
2023-04-06T10:31:26.669Z,28.32
2023-04-06T10:32:26.679Z,28.35
2023-04-06T10:33:26.700Z,28.34
2023-04-06T10:34:26.706Z,28.33
2023-04-06T10:35:26.701Z,28.36
2023-04-06T10:36:26.750Z,28.33
2023-04-06T10:37:26.789Z,28.29
2023-04-06T10:38:26.822Z,28.30
2023-04-06T10:39:26.825Z,28.31
2023-04-06T10:40:26.854Z,28.27
2023-04-06T10:41:26.881Z,28.29
2023-04-06T10:42:26.898Z,28.26
2023-04-06T10:43:27.060Z,28.27
2023-04-06T10:44:26.937Z,28.25
2023-04-06T10:45:27.007Z,28.24
2023-04-06T10:46:27.269Z,28.25
2023-04-06T10:47:27.068Z,28.23
2023-04-06T10:48:27.055Z,28.24
2023-04-06T10:49:27.603Z,28.22
2023-04-06T10:50:27.043Z,28.24
2023-04-06T10:51:27.100Z,28.23
2023-04-06T10:52:27.131Z,28.21
2023-04-06T10:53:27.164Z,28.24
2023-04-06T10:54:27.252Z,28.24
2023-04-06T10:55:27.241Z,28.24
2023-04-06T10:56:27.220Z,28.24
2023-04-06T10:57:27.254Z,28.23
2023-04-06T10:58:27.286Z,28.22
2023-04-06T10:59:27.300Z,28.24
2023-04-06T11:00:36.078Z,28.23
2023-04-06T11:01:28.339Z,28.25
2023-04-06T11:02:27.361Z,28.23
2023-04-06T11:03:27.322Z,28.24
2023-04-06T11:04:27.303Z,28.24
2023-04-06T11:05:27.299Z,28.24
2023-04-06T11:06:27.250Z,28.23
2023-04-06T11:07:27.271Z,28.23
2023-04-06T11:08:27.285Z,28.24
2023-04-06T11:09:27.282Z,28.24
2023-04-06T11:10:27.260Z,28.21
2023-04-06T11:11:27.299Z,28.24
2023-04-06T11:12:27.263Z,28.23
2023-04-06T11:13:27.246Z,28.23
2023-04-06T11:14:27.260Z,28.23
2023-04-06T11:15:27.220Z,28.21
2023-04-06T11:16:27.276Z,28.22
2023-04-06T11:17:27.278Z,28.21
2023-04-06T11:18:27.232Z,28.22
2023-04-06T11:19:27.265Z,28.23
2023-04-06T11:20:27.245Z,28.20
2023-04-06T11:21:27.252Z,28.21
2023-04-06T11:22:27.249Z,28.21
2023-04-06T11:23:27.265Z,28.20
2023-04-06T11:24:27.330Z,28.21
2023-04-06T11:25:27.326Z,28.22
2023-04-06T11:26:27.369Z,28.19
2023-04-06T11:27:27.368Z,28.23
2023-04-06T11:28:27.372Z,28.17
2023-04-06T11:29:27.406Z,28.19
2023-04-06T11:30:27.419Z,28.19
2023-04-06T11:31:27.464Z,28.17
2023-04-06T11:32:27.492Z,28.20
2023-04-06T11:33:27.479Z,28.18
2023-04-06T11:34:27.494Z,28.17
2023-04-06T11:35:27.498Z,28.18
2023-04-06T11:36:27.554Z,28.17
2023-04-06T11:37:28.445Z,28.17
2023-04-06T11:38:27.533Z,28.17
2023-04-06T11:39:27.619Z,28.15
2023-04-06T11:40:27.582Z,28.18
2023-04-06T11:41:27.589Z,28.15
2023-04-06T11:42:27.616Z,28.15
2023-04-06T11:43:27.622Z,28.14
2023-04-06T11:44:27.646Z,28.16
2023-04-06T11:45:27.674Z,28.16
2023-04-06T11:46:27.708Z,28.14
2023-04-06T11:47:27.708Z,28.14
2023-04-06T11:48:28.039Z,28.17
2023-04-06T11:49:27.720Z,28.18
2023-04-06T11:50:27.758Z,28.18
2023-04-06T11:51:27.777Z,28.20
2023-04-06T11:52:27.809Z,28.20
2023-04-06T11:53:27.798Z,28.19
2023-04-06T11:55:27.857Z,28.23
2023-04-06T11:56:27.871Z,28.21
2023-04-06T11:57:27.846Z,28.21
2023-04-06T11:58:27.889Z,28.20
2023-04-06T11:59:27.977Z,28.18
2023-04-06T12:00:27.920Z,28.21
2023-04-06T12:01:27.946Z,28.20
2023-04-06T12:02:28.077Z,28.18
2023-04-06T12:03:28.092Z,28.16
2023-04-06T12:04:28.051Z,28.17
2023-04-06T12:05:27.991Z,28.14
2023-04-06T12:06:28.037Z,28.16
2023-04-06T12:07:28.052Z,28.13
2023-04-06T12:08:28.049Z,28.14
2023-04-06T12:09:28.580Z,28.14
2023-04-06T12:10:28.120Z,28.14
2023-04-06T12:11:28.082Z,28.12
2023-04-06T12:12:28.088Z,28.12
2023-04-06T12:13:28.110Z,28.09
2023-04-06T12:14:28.136Z,28.11
2023-04-06T12:15:28.171Z,28.10
2023-04-06T12:16:28.240Z,28.08
2023-04-06T12:17:28.222Z,28.07
2023-04-06T12:18:28.178Z,28.06
2023-04-06T12:19:29.000Z,28.09
2023-04-06T12:20:28.219Z,28.06
2023-04-06T12:21:28.231Z,28.07
2023-04-06T12:22:28.287Z,28.09
2023-04-06T12:23:28.291Z,28.07
2023-04-06T12:24:28.251Z,28.08
2023-04-06T12:25:28.866Z,28.08
2023-04-06T12:26:28.294Z,28.03
2023-04-06T12:27:28.295Z,28.05
2023-04-06T12:28:28.324Z,28.05
2023-04-06T12:29:28.309Z,28.02
2023-04-06T12:30:28.317Z,28.04
2023-04-06T12:31:28.389Z,28.07
2023-04-06T12:32:28.397Z,28.05
2023-04-06T12:33:28.498Z,28.04
2023-04-06T12:34:28.374Z,28.04
2023-04-06T12:35:28.394Z,28.07
2023-04-06T12:36:28.434Z,28.03
2023-04-06T12:37:28.427Z,28.06
2023-04-06T12:38:28.435Z,28.04
2023-04-06T12:39:28.462Z,28.08
2023-04-06T12:40:28.469Z,28.07
2023-04-06T12:41:28.454Z,28.07
2023-04-06T12:42:28.503Z,28.04
2023-04-06T12:43:28.527Z,28.03
2023-04-06T12:44:28.539Z,28.04
2023-04-06T12:45:28.552Z,28.03
2023-04-06T12:46:28.597Z,28.03
2023-04-06T12:47:28.588Z,28.02
2023-04-06T12:48:28.573Z,28.04
2023-04-06T12:49:29.411Z,28.03
2023-04-06T12:50:28.584Z,28.03
2023-04-06T12:51:28.614Z,28.00
2023-04-06T12:52:28.596Z,28.01
2023-04-06T12:53:28.655Z,28.02